Time;durP1;ratioP1;P1;durP2;ratioP2;P2;SDS_P1;SDS_P2;PMS_P1;PMS_P2;Temp;Humidity;BMP_temperature;BMP_pressure;BME280_temperature;BME280_humidity;BME280_pressure;Samples;Min_cycle;Max_cycle;Signal;HPM_P1;HPM_P2
2022/08/18 00:00:08;;;;;;;112.68;74.07;;;;;;;18.63;100.00;101016.22;171997;28;931;-63
2022/08/18 00:00:15;;;;;;;113.16;73.90;;;;;;;18.64;100.00;101009.97;172635;28;1101;-62
2022/08/18 00:00:20;;;;;;;113.17;73.27;;;;;;;18.64;100.00;101014.41;172726;28;907;-63
2022/08/18 00:00:25;;;;;;;113.13;73.40;;;;;;;18.65;100.00;101018.75;172602;28;931;-63
2022/08/18 00:00:32;;;;;;;112.97;73.47;;;;;;;18.65;100.00;101013.47;172614;28;970;-62
2022/08/18 00:00:37;;;;;;;113.10;73.42;;;;;;;18.64;100.00;101020.53;172619;28;955;-63
2022/08/18 00:00:44;;;;;;;113.80;73.83;;;;;;;18.64;100.00;101011.75;173123;28;1959;-62
2022/08/18 00:00:50;;;;;;;116.32;74.76;;;;;;;18.64;100.00;101009.09;173998;28;1049;-63
2022/08/18 00:00:56;;;;;;;116.80;74.97;;;;;;;18.62;100.00;101016.31;173989;28;923;-63
2022/08/18 00:01:01;;;;;;;116.73;75.23;;;;;;;18.60;100.00;101012.94;173976;28;878;-63
2022/08/18 00:01:09;;;;;;;116.75;75.13;;;;;;;18.60;100.00;101013.78;173984;28;847;-63
2022/08/18 00:01:15;;;;;;;116.13;74.67;;;;;;;18.60;100.00;101012.94;173977;28;1009;-63
2022/08/18 00:01:23;;;;;;;113.22;73.88;;;;;;;18.60;100.00;101018.22;174013;28;874;-63
2022/08/18 00:01:28;;;;;;;111.42;73.43;;;;;;;18.59;100.00;101016.53;173993;28;1152;-63
2022/08/18 00:01:34;;;;;;;110.30;72.57;;;;;;;18.60;100.00;101012.94;174009;28;914;-63
2022/08/18 00:01:42;;;;;;;109.28;72.25;;;;;;;18.60;100.00;101012.94;173991;28;1092;-62
2022/08/18 00:01:59;;;;;;;108.20;72.15;;;;;;;18.61;100.00;101017.28;173971;28;1163;-63
2022/08/18 00:02:19;;;;;;;110.21;72.55;;;;;;;18.61;100.00;101012.00;173955;28;1290;-63
2022/08/18 00:02:28;;;;;;;112.95;72.85;;;;;;;18.61;100.00;101009.38;173856;28;1274;-63
2022/08/18 00:02:34;;;;;;;114.77;72.84;;;;;;;18.62;100.00;101005.75;174011;28;1138;-63
2022/08/18 00:02:42;;;;;;;113.82;72.72;;;;;;;18.63;100.00;101004.78;173982;28;926;-62
2022/08/18 00:02:47;;;;;;;113.18;72.73;;;;;;;18.63;100.00;101008.28;172705;28;1002;-62
2022/08/18 00:02:58;;;;;;;113.73;73.40;;;;;;;18.63;100.00;101010.94;172686;28;1096;-62
2022/08/18 00:03:07;;;;;;;114.06;73.28;;;;;;;18.64;100.00;101007.31;172638;28;1293;-63
2022/08/18 00:03:13;;;;;;;115.73;74.40;;;;;;;18.65;100.00;101006.34;172707;28;1136;-63
2022/08/18 00:03:19;;;;;;;118.82;74.78;;;;;;;18.66;100.00;101009.84;172700;28;903;-62
2022/08/18 00:03:29;;;;;;;116.43;73.53;;;;;;;18.68;100.00;101009.75;172637;28;903;-63
2022/08/18 00:03:35;;;;;;;115.10;73.29;;;;;;;18.67;100.00;101014.19;172654;28;1188;-63
2022/08/18 00:03:43;;;;;;;114.43;73.00;;;;;;;18.66;100.00;101013.34;172737;28;1023;-63
2022/08/18 00:03:49;;;;;;;111.93;72.40;;;;;;;18.68;100.00;101012.38;172680;28;990;-63
2022/08/18 00:03:54;;;;;;;111.95;72.53;;;;;;;18.67;100.00;101008.88;172676;28;1148;-63
2022/08/18 00:04:00;;;;;;;113.40;72.70;;;;;;;18.67;100.00;101006.25;172637;28;1050;-63
2022/08/18 00:04:08;;;;;;;113.35;72.70;;;;;;;18.68;100.00;101015.84;172699;28;873;-63
2022/08/18 00:04:14;;;;;;;113.18;72.85;;;;;;;18.68;100.00;101009.75;173204;28;1126;-63
2022/08/18 00:04:20;;;;;;;113.37;73.30;;;;;;;18.69;100.00;101011.41;173259;28;3810;-63
2022/08/18 00:04:25;;;;;;;112.47;73.05;;;;;;;18.69;100.00;101017.56;173313;28;1116;-62
2022/08/18 00:04:35;;;;;;;111.10;72.45;;;;;;;18.69;100.00;101006.13;173323;28;859;-63
2022/08/18 00:04:41;;;;;;;111.93;72.36;;;;;;;18.68;100.00;101007.94;173299;28;1095;-63
2022/08/18 00:04:47;;;;;;;111.32;72.00;;;;;;;18.69;100.00;101007.00;173295;28;1085;-63
2022/08/18 00:04:54;;;;;;;111.38;72.20;;;;;;;18.69;100.00;101007.00;173346;28;966;-62
2022/08/18 00:04:59;;;;;;;112.93;72.77;;;;;;;18.70;100.00;101015.75;173330;28;871;-62
2022/08/18 00:05:05;;;;;;;112.27;72.83;;;;;;;18.70;100.00;101003.38;173338;28;1237;-62
2022/08/18 00:05:11;;;;;;;112.63;72.93;;;;;;;18.69;100.00;101008.78;173312;28;1041;-62
2022/08/18 00:05:17;;;;;;;112.67;73.43;;;;;;;18.70;100.00;101008.66;173343;28;1685;-63
2022/08/18 00:05:22;;;;;;;113.63;74.17;;;;;;;18.69;100.00;101011.41;173381;28;922;-63
2022/08/18 00:05:28;;;;;;;112.03;73.90;;;;;;;18.69;100.00;101006.13;173239;28;946;-63
2022/08/18 00:05:35;;;;;;;111.53;73.47;;;;;;;18.69;100.00;101007.00;173281;28;1033;-63
2022/08/18 00:05:40;;;;;;;111.56;73.34;;;;;;;18.69;100.00;101017.56;173291;28;915;-63
2022/08/18 00:05:45;;;;;;;110.57;72.73;;;;;;;18.69;100.00;101007.00;173287;28;1034;-62
2022/08/18 00:05:50;;;;;;;110.97;72.53;;;;;;;18.70;100.00;101008.66;173342;28;1096;-62
2022/08/18 00:05:56;;;;;;;115.00;72.72;;;;;;;18.70;100.00;101013.09;173325;28;907;-62
2022/08/18 00:06:01;;;;;;;116.07;72.80;;;;;;;18.70;100.00;101008.66;173308;28;914;-62
2022/08/18 00:06:07;;;;;;;115.50;72.63;;;;;;;18.71;100.00;101006.88;173306;28;1092;-62
2022/08/18 00:06:12;;;;;;;115.72;72.68;;;;;;;18.70;100.00;101013.09;172960;28;831;-62
2022/08/18 00:06:18;;;;;;;115.95;72.60;;;;;;;18.71;100.00;101010.34;172663;28;895;-62
2022/08/18 00:06:25;;;;;;;114.28;72.25;;;;;;;18.70;100.00;101011.31;172748;28;1147;-63
2022/08/18 00:06:30;;;;;;;114.55;72.80;;;;;;;18.70;100.00;101006.03;172638;28;971;-63
2022/08/18 00:06:36;;;;;;;115.13;74.03;;;;;;;18.70;100.00;101013.09;172689;28;852;-62
2022/08/18 00:06:42;;;;;;;115.43;74.13;;;;;;;18.70;100.00;101008.66;172719;28;899;-63
2022/08/18 00:06:47;;;;;;;116.20;74.65;;;;;;;18.70;100.00;101013.94;172655;28;906;-63
2022/08/18 00:06:52;;;;;;;117.37;75.40;;;;;;;18.71;100.00;101015.63;172738;28;847;-63
2022/08/18 00:06:58;;;;;;;116.50;75.43;;;;;;;18.71;100.00;101018.28;172649;28;835;-63
2022/08/18 00:07:11;;;;;;;117.47;75.53;;;;;;;18.70;100.00;101011.31;172714;28;827;-63
2022/08/18 00:07:31;;;;;;;119.30;75.65;;;;;;;18.70;100.00;101013.94;172634;28;1294;-63
2022/08/18 00:07:36;;;;;;;119.97;75.65;;;;;;;18.69;100.00;101012.28;172622;28;1278;-63
2022/08/18 00:07:41;;;;;;;121.30;75.20;;;;;;;18.69;100.00;101028.13;172708;28;836;-63
2022/08/18 00:07:47;;;;;;;122.90;75.40;;;;;;;18.69;100.00;101017.56;172539;28;907;-63
2022/08/18 00:07:52;;;;;;;123.68;75.40;;;;;;;18.69;100.00;101012.28;172661;28;887;-63
2022/08/18 00:07:58;;;;;;;123.63;75.40;;;;;;;18.69;100.00;101012.28;172631;28;1085;-63
2022/08/18 00:08:04;;;;;;;122.35;74.85;;;;;;;18.69;100.00;101017.56;172612;28;1086;-63
2022/08/18 00:08:10;;;;;;;120.80;74.42;;;;;;;18.69;100.00;101016.72;172584;28;1082;-63
2022/08/18 00:08:15;;;;;;;120.83;74.63;;;;;;;18.67;100.00;101016.81;172634;28;1025;-63
2022/08/18 00:08:21;;;;;;;120.23;74.77;;;;;;;18.68;100.00;101015.03;172675;28;1017;-63
2022/08/18 00:08:28;;;;;;;121.88;75.00;;;;;;;18.66;100.00;101020.44;172624;28;1033;-63
2022/08/18 00:08:33;;;;;;;122.40;75.37;;;;;;;18.66;100.00;101017.78;172662;28;962;-63
2022/08/18 00:08:38;;;;;;;123.67;75.73;;;;;;;18.65;100.00;101018.75;172619;28;926;-63
2022/08/18 00:08:44;;;;;;;121.57;75.53;;;;;;;18.65;100.00;101022.22;172648;28;864;-63
2022/08/18 00:08:49;;;;;;;120.53;75.23;;;;;;;18.65;100.00;101021.38;172617;28;1010;-63
2022/08/18 00:09:01;;;;;;;119.80;74.97;;;;;;;18.63;100.00;101023.28;172663;28;1033;-64
2022/08/18 00:09:09;;;;;;;118.68;74.93;;;;;;;18.62;100.00;101024.25;172530;28;1675;-63
2022/08/18 00:09:15;;;;;;;118.19;74.90;;;;;;;18.62;100.00;101025.06;172612;28;1093;-63
2022/08/18 00:09:20;;;;;;;118.73;75.13;;;;;;;18.63;100.00;101018.00;172611;28;1014;-64
2022/08/18 00:09:26;;;;;;;118.10;75.13;;;;;;;18.62;100.00;101027.72;172577;28;1029;-64
2022/08/18 00:09:35;;;;;;;119.25;75.38;;;;;;;18.59;100.00;101027.13;172627;28;962;-64
2022/08/18 00:09:42;;;;;;;118.93;74.80;;;;;;;18.52;100.00;101022.28;172588;28;860;-63
2022/08/18 00:09:47;;;;;;;118.36;74.30;;;;;;;18.44;100.00;101024.63;172547;28;1014;-63
2022/08/18 00:09:53;;;;;;;118.03;74.27;;;;;;;18.37;100.00;101024.25;172680;28;978;-63
2022/08/18 00:10:00;;;;;;;116.70;74.30;;;;;;;18.35;100.00;101025.31;172688;28;848;-63
2022/08/18 00:10:06;;;;;;;116.54;74.30;;;;;;;18.30;100.00;101027.47;172672;28;1093;-63
2022/08/18 00:10:12;;;;;;;116.62;74.50;;;;;;;18.27;100.00;101018.78;172658;28;915;-63
2022/08/18 00:10:17;;;;;;;115.67;74.63;;;;;;;18.32;100.00;101026.38;172640;28;970;-64
2022/08/18 00:10:24;;;;;;;117.10;74.73;;;;;;;18.35;100.00;101026.19;172759;28;1221;-63
2022/08/18 00:10:31;;;;;;;118.24;74.80;;;;;;;18.38;100.00;101023.28;172679;28;994;-63
2022/08/18 00:10:41;;;;;;;118.17;74.40;;;;;;;18.44;100.00;101029.91;172719;28;1152;-63
2022/08/18 00:10:46;;;;;;;119.21;74.78;;;;;;;18.46;100.00;101028.03;173178;28;1445;-63
2022/08/18 00:10:51;;;;;;;114.80;73.90;;;;;;;18.49;100.00;101024.31;173368;28;1080;-63
2022/08/18 00:10:57;;;;;;;113.13;73.22;;;;;;;18.49;100.00;101027.81;173291;28;923;-63
2022/08/18 00:11:03;;;;;;;110.90;73.03;;;;;;;18.49;100.00;101025.16;173287;28;910;-63
2022/08/18 00:11:09;;;;;;;107.98;72.56;;;;;;;18.50;100.00;101029.47;173311;28;923;-63
2022/08/18 00:11:15;;;;;;;107.30;72.93;;;;;;;18.50;100.00;101026.84;173338;28;740;-63
2022/08/18 00:11:22;;;;;;;108.86;73.74;;;;;;;18.50;100.00;101024.19;172513;28;1465;-63
2022/08/18 00:11:31;;;;;;;110.80;73.55;;;;;;;18.51;100.00;101031.16;172644;28;922;-63
2022/08/18 00:11:41;;;;;;;113.43;74.36;;;;;;;18.50;100.00;101024.19;172626;28;1190;-63
2022/08/18 00:11:47;;;;;;;115.45;73.76;;;;;;;18.51;100.00;101025.88;172573;28;1206;-63
2022/08/18 00:11:52;;;;;;;113.80;73.30;;;;;;;18.53;100.00;101031.91;172651;28;1033;-64
2022/08/18 00:12:00;;;;;;;113.22;73.90;;;;;;;18.55;100.00;101026.50;172615;28;1022;-63
2022/08/18 00:12:22;;;;;;;113.17;73.37;;;;;;;18.57;100.00;101031.69;172652;28;970;-64
2022/08/18 00:12:38;;;;;;;112.91;73.14;;;;;;;18.48;100.00;101028.75;172595;28;1305;-63
2022/08/18 00:12:43;;;;;;;114.81;72.88;;;;;;;18.46;100.00;101028.03;172468;28;1682;-63
2022/08/18 00:12:49;;;;;;;114.18;72.47;;;;;;;18.48;100.00;101033.19;172606;28;875;-63
2022/08/18 00:12:54;;;;;;;113.27;72.80;;;;;;;18.50;100.00;101034.78;172646;28;998;-63
2022/08/18 00:13:00;;;;;;;112.75;72.78;;;;;;;18.51;100.00;101036.44;172649;28;899;-63
2022/08/18 00:13:05;;;;;;;112.40;72.00;;;;;;;18.52;100.00;101032.84;172641;28;923;-63
2022/08/18 00:13:10;;;;;;;112.07;71.80;;;;;;;18.54;100.00;101030.09;172633;28;1085;-63
2022/08/18 00:13:16;;;;;;;111.55;71.95;;;;;;;18.55;100.00;101030.94;172628;28;1097;-63
2022/08/18 00:13:21;;;;;;;111.57;72.20;;;;;;;18.57;100.00;101029.03;172715;28;1033;-63
2022/08/18 00:13:26;;;;;;;112.53;72.90;;;;;;;18.57;100.00;101029.03;172658;28;920;-63
2022/08/18 00:13:33;;;;;;;113.63;73.03;;;;;;;18.58;100.00;101028.91;172717;28;839;-63
2022/08/18 00:13:38;;;;;;;113.18;73.38;;;;;;;18.58;100.00;101022.78;173245;28;1141;-63
2022/08/18 00:13:44;;;;;;;114.20;73.83;;;;;;;18.58;100.00;101028.09;173302;28;1101;-63
2022/08/18 00:13:49;;;;;;;113.90;74.10;;;;;;;18.59;100.00;101029.75;173266;28;903;-63
2022/08/18 00:13:55;;;;;;;114.75;73.50;;;;;;;18.60;100.00;101031.44;173283;28;855;-63
2022/08/18 00:14:00;;;;;;;113.53;73.57;;;;;;;18.60;100.00;101026.16;173316;28;827;-62
2022/08/18 00:14:08;;;;;;;113.15;73.72;;;;;;;18.61;100.00;101030.50;173215;28;1009;-62
2022/08/18 00:14:19;;;;;;;113.05;73.35;;;;;;;18.61;100.00;101030.50;173297;28;979;-63
2022/08/18 00:14:24;;;;;;;113.31;73.67;;;;;;;18.63;100.00;101028.56;173320;28;1330;-63
2022/08/18 00:14:31;;;;;;;112.80;73.50;;;;;;;18.63;100.00;101028.56;173318;28;970;-63
2022/08/18 00:14:36;;;;;;;111.90;72.87;;;;;;;18.62;100.00;101026.91;173329;28;969;-63
2022/08/18 00:14:42;;;;;;;111.83;73.87;;;;;;;18.64;100.00;101030.25;173222;28;1057;-63
2022/08/18 00:14:47;;;;;;;112.03;74.07;;;;;;;18.64;100.00;101030.25;173292;28;867;-63
2022/08/18 00:14:54;;;;;;;111.30;73.68;;;;;;;18.64;100.00;101025.81;173345;28;950;-63
2022/08/18 00:15:03;;;;;;;109.70;73.00;;;;;;;18.64;100.00;101022.31;173290;28;1073;-63
2022/08/18 00:15:14;;;;;;;110.89;73.34;;;;;;;18.64;100.00;101030.25;173278;28;1096;-63
2022/08/18 00:15:20;;;;;;;110.51;72.94;;;;;;;18.65;100.00;101024.03;173117;28;2125;-62
2022/08/18 00:15:25;;;;;;;112.20;73.30;;;;;;;18.65;100.00;101027.50;173321;28;974;-63
2022/08/18 00:15:31;;;;;;;111.78;73.28;;;;;;;18.65;100.00;101027.50;173294;28;923;-63
2022/08/18 00:15:37;;;;;;;113.07;73.57;;;;;;;18.65;100.00;101029.31;172545;28;953;-63
2022/08/18 00:15:42;;;;;;;114.20;73.38;;;;;;;18.65;100.00;101026.69;172628;28;1033;-63
2022/08/18 00:15:47;;;;;;;114.60;73.00;;;;;;;18.65;100.00;101026.69;171883;28;903;-63
2022/08/18 00:15:53;;;;;;;113.70;73.00;;;;;;;18.66;100.00;101033.63;171952;28;1089;-63
2022/08/18 00:15:58;;;;;;;114.57;73.80;;;;;;;18.65;100.00;101029.31;171902;28;864;-63
2022/08/18 00:16:04;;;;;;;113.75;73.47;;;;;;;18.63;100.00;101028.56;171924;28;927;-62
2022/08/18 00:16:09;;;;;;;113.05;73.57;;;;;;;18.57;100.00;101029.03;171941;28;1042;-63
2022/08/18 00:16:15;;;;;;;110.90;73.33;;;;;;;18.54;100.00;101032.72;171961;28;864;-63
2022/08/18 00:16:21;;;;;;;112.63;73.60;;;;;;;18.52;100.00;101022.28;171958;28;966;-63
2022/08/18 00:16:26;;;;;;;113.57;73.68;;;;;;;18.53;100.00;101028.41;171980;28;959;-63
2022/08/18 00:16:32;;;;;;;114.38;73.10;;;;;;;18.53;100.00;101031.06;171925;28;1070;-63
2022/08/18 00:16:37;;;;;;;114.70;72.87;;;;;;;18.47;100.00;101024.41;171942;28;1116;-62
2022/08/18 00:16:43;;;;;;;114.57;72.75;;;;;;;18.44;100.00;101029.91;171951;28;1112;-63
2022/08/18 00:16:53;;;;;;;112.63;72.50;;;;;;;18.38;100.00;101025.94;171940;28;978;-63
2022/08/18 00:16:58;;;;;;;109.31;71.59;;;;;;;18.36;100.00;101029.63;171922;28;1191;-62
2022/08/18 00:17:04;;;;;;;107.22;71.30;;;;;;;18.32;100.00;101028.19;171962;28;1086;-63
2022/08/18 00:17:09;;;;;;;107.10;71.40;;;;;;;18.26;100.00;101022.41;171932;28;967;-63
2022/08/18 00:17:16;;;;;;;108.03;71.63;;;;;;;18.22;100.00;101028.00;171887;28;1034;-63
2022/08/18 00:17:23;;;;;;;108.02;71.80;;;;;;;18.17;100.00;101027.50;171972;28;913;-63
2022/08/18 00:17:30;;;;;;;109.57;72.37;;;;;;;18.19;100.00;101026.44;171969;28;883;-63
2022/08/18 00:17:36;;;;;;;110.26;73.00;;;;;;;18.21;100.00;101029.81;172324;28;1034;-63
2022/08/18 00:17:42;;;;;;;110.74;72.70;;;;;;;18.21;100.00;101029.81;172646;28;1248;-63
2022/08/18 00:17:47;;;;;;;109.75;72.07;;;;;;;18.20;100.00;101032.56;172654;28;1149;-63
2022/08/18 00:17:53;;;;;;;110.43;72.17;;;;;;;18.16;100.00;101024.00;172736;28;1049;-63
2022/08/18 00:17:58;;;;;;;110.23;72.07;;;;;;;18.13;100.00;101026.84;172653;28;1096;-62
2022/08/18 00:18:04;;;;;;;108.72;71.95;;;;;;;18.10;100.00;101029.75;172667;28;903;-63
2022/08/18 00:18:09;;;;;;;108.03;71.77;;;;;;;18.06;100.00;101026.44;172624;28;1100;-63
2022/08/18 00:18:15;;;;;;;107.13;71.68;;;;;;;18.02;100.00;101015.25;172687;28;1108;-63
2022/08/18 00:18:21;;;;;;;108.28;71.88;;;;;;;18.01;100.00;101023.28;172708;28;907;-62
2022/08/18 00:18:27;;;;;;;108.23;72.17;;;;;;;18.05;100.00;101026.53;172684;28;1030;-62
2022/08/18 00:18:32;;;;;;;107.20;71.87;;;;;;;18.09;100.00;101030.69;172707;28;1029;-63
2022/08/18 00:18:37;;;;;;;106.93;71.57;;;;;;;18.07;100.00;101027.28;172673;28;1045;-63
2022/08/18 00:18:43;;;;;;;108.13;71.73;;;;;;;18.09;100.00;101030.69;172661;28;1013;-63
2022/08/18 00:18:48;;;;;;;108.00;72.00;;;;;;;18.12;100.00;101030.47;172653;28;864;-63
2022/08/18 00:18:54;;;;;;;106.20;71.65;;;;;;;18.15;100.00;101024.97;172731;28;1088;-62
2022/08/18 00:18:59;;;;;;;105.83;71.30;;;;;;;18.19;100.00;101033.50;172656;28;1041;-63
2022/08/18 00:19:04;;;;;;;106.57;71.72;;;;;;;18.20;100.00;101033.38;172643;28;856;-63
2022/08/18 00:19:10;;;;;;;105.70;72.03;;;;;;;18.21;100.00;101032.47;172674;28;898;-63
2022/08/18 00:19:15;;;;;;;105.15;72.05;;;;;;;18.24;100.00;101026.94;172678;28;915;-63
2022/08/18 00:19:23;;;;;;;104.53;71.70;;;;;;;18.23;100.00;101027.91;172703;28;852;-63
2022/08/18 00:19:28;;;;;;;105.90;71.57;;;;;;;18.25;100.00;101030.44;172687;28;1064;-63
2022/08/18 00:19:33;;;;;;;105.87;71.30;;;;;;;18.28;100.00;101025.75;172688;28;1037;-63
2022/08/18 00:19:39;;;;;;;105.30;70.90;;;;;;;18.32;100.00;101025.53;172677;28;827;-63
2022/08/18 00:19:46;;;;;;;104.75;70.13;;;;;;;18.34;100.00;101031.56;172711;28;934;-63
2022/08/18 00:19:51;;;;;;;105.66;70.04;;;;;;;18.37;100.00;101023.44;172669;28;1101;-63
2022/08/18 00:19:57;;;;;;;105.93;70.80;;;;;;;18.38;100.00;101030.38;172715;28;1045;-62
2022/08/18 00:20:12;;;;;;;106.57;70.95;;;;;;;18.42;100.00;101029.22;172623;28;914;-63
2022/08/18 00:20:21;;;;;;;108.49;71.50;;;;;;;18.45;100.00;101029.00;173203;28;1521;-63
2022/08/18 00:20:27;;;;;;;109.43;71.34;;;;;;;18.46;100.00;101022.75;173163;28;1316;-62
2022/08/18 00:20:33;;;;;;;106.90;71.03;;;;;;;18.47;100.00;101024.41;173327;28;867;-63
2022/08/18 00:20:40;;;;;;;105.60;70.33;;;;;;;18.48;100.00;101026.09;173295;28;1211;-63
2022/08/18 00:20:45;;;;;;;103.97;70.35;;;;;;;18.49;100.00;101022.53;173281;28;918;-63
2022/08/18 00:20:51;;;;;;;103.60;70.77;;;;;;;18.52;100.00;101026.72;173321;28;906;-63
2022/08/18 00:20:56;;;;;;;104.60;71.25;;;;;;;18.51;100.00;101033.81;173354;28;847;-63
2022/08/18 00:21:01;;;;;;;106.33;71.57;;;;;;;18.52;100.00;101027.56;173320;28;918;-62
2022/08/18 00:21:07;;;;;;;108.73;72.07;;;;;;;18.53;100.00;101018.69;173293;28;1112;-62
2022/08/18 00:21:12;;;;;;;109.97;72.22;;;;;;;18.55;100.00;101020.38;173311;28;1049;-62
2022/08/18 00:21:18;;;;;;;111.03;72.07;;;;;;;18.56;100.00;101024.69;173301;28;1037;-62
2022/08/18 00:21:24;;;;;;;111.80;72.20;;;;;;;18.57;100.00;101026.41;173414;28;962;-63
2022/08/18 00:21:29;;;;;;;110.17;71.97;;;;;;;18.57;100.00;101026.41;173293;28;868;-63
2022/08/18 00:21:35;;;;;;;109.63;71.70;;;;;;;18.57;100.00;101021.13;173287;28;1042;-63
2022/08/18 00:21:41;;;;;;;107.90;71.70;;;;;;;18.59;100.00;101021.84;173261;28;1085;-62
2022/08/18 00:21:46;;;;;;;107.55;71.47;;;;;;;18.57;100.00;101023.75;173307;28;1094;-63
2022/08/18 00:21:52;;;;;;;106.13;70.80;;;;;;;18.55;100.00;101026.50;173300;28;898;-63
2022/08/18 00:21:57;;;;;;;104.85;69.72;;;;;;;18.55;100.00;101031.78;173287;28;726;-63
2022/08/18 00:22:03;;;;;;;104.70;69.53;;;;;;;18.52;100.00;101026.72;173334;28;1041;-63
2022/08/18 00:22:12;;;;;;;106.03;70.03;;;;;;;18.52;100.00;101030.19;173213;28;942;-63
2022/08/18 00:22:20;;;;;;;106.17;70.17;;;;;;;18.53;100.00;101020.47;172774;28;1087;-63
2022/08/18 00:22:26;;;;;;;107.72;71.03;;;;;;;18.55;100.00;101020.38;172725;28;1034;-63
2022/08/18 00:22:32;;;;;;;110.75;71.80;;;;;;;18.56;100.00;101020.25;172704;28;859;-63
2022/08/18 00:22:40;;;;;;;110.20;71.57;;;;;;;18.58;100.00;101022.78;172729;28;906;-63
2022/08/18 00:22:47;;;;;;;109.94;71.19;;;;;;;18.59;100.00;101027.13;172692;28;1084;-63
2022/08/18 00:22:55;;;;;;;109.16;70.46;;;;;;;18.60;100.00;101027.00;172688;28;1069;-63
2022/08/18 00:23:00;;;;;;;108.07;70.60;;;;;;;18.62;100.00;101029.53;172679;28;1001;-63
2022/08/18 00:23:06;;;;;;;107.93;70.80;;;;;;;18.62;100.00;101016.31;172677;28;914;-63
2022/08/18 00:23:12;;;;;;;107.82;70.93;;;;;;;18.63;100.00;101020.66;172666;28;1077;-63
2022/08/18 00:23:18;;;;;;;108.18;71.28;;;;;;;18.63;100.00;101023.28;172624;28;946;-63
2022/08/18 00:23:23;;;;;;;107.95;71.55;;;;;;;18.63;100.00;101023.28;171745;28;827;-63
2022/08/18 00:23:31;;;;;;;108.20;70.93;;;;;;;18.64;100.00;101024.97;171858;28;891;-63
2022/08/18 00:23:37;;;;;;;108.27;70.42;;;;;;;18.65;100.00;101029.31;172656;28;980;-63
2022/08/18 00:23:43;;;;;;;108.78;70.32;;;;;;;18.64;100.00;101028.47;172519;28;1071;-63
2022/08/18 00:23:48;;;;;;;110.73;70.97;;;;;;;18.64;100.00;101019.69;172581;28;1227;-62
2022/08/18 00:23:53;;;;;;;112.03;71.15;;;;;;;18.64;100.00;101019.69;172627;28;1045;-63
2022/08/18 00:23:59;;;;;;;112.97;71.47;;;;;;;18.64;100.00;101023.19;172605;28;915;-63
2022/08/18 00:24:05;;;;;;;113.03;71.60;;;;;;;18.64;100.00;101019.69;172532;28;764;-63
2022/08/18 00:24:10;;;;;;;113.65;71.70;;;;;;;18.65;100.00;101022.22;172578;28;1092;-63
2022/08/18 00:24:16;;;;;;;111.63;71.50;;;;;;;18.66;100.00;101023.06;172532;28;933;-63
2022/08/18 00:24:21;;;;;;;111.00;71.43;;;;;;;18.66;100.00;101023.06;172616;28;859;-63
2022/08/18 00:24:27;;;;;;;108.53;70.87;;;;;;;18.65;100.00;101022.22;172655;28;919;-62
2022/08/18 00:24:33;;;;;;;106.15;70.00;;;;;;;18.65;100.00;101026.69;172638;28;847;-63
2022/08/18 00:24:38;;;;;;;104.55;69.45;;;;;;;18.65;100.00;101022.22;172660;28;919;-62
2022/08/18 00:24:49;;;;;;;104.77;69.20;;;;;;;18.66;100.00;101025.72;172624;28;1054;-62
2022/08/18 00:24:56;;;;;;;104.77;69.43;;;;;;;18.65;100.00;101029.31;172676;28;887;-62
2022/08/18 00:25:02;;;;;;;107.10;70.30;;;;;;;18.65;100.00;101021.38;172638;28;985;-63
2022/08/18 00:25:12;;;;;;;109.34;71.24;;;;;;;18.66;100.00;101028.34;172612;28;979;-62
2022/08/18 00:25:19;;;;;;;110.40;71.40;;;;;;;18.63;100.00;101028.56;172629;28;1029;-63
2022/08/18 00:25:25;;;;;;;111.72;71.46;;;;;;;18.53;100.00;101029.25;172645;28;990;-63
2022/08/18 00:25:30;;;;;;;110.80;71.05;;;;;;;18.48;100.00;101020.00;172614;28;943;-63
2022/08/18 00:25:36;;;;;;;109.80;70.47;;;;;;;18.44;100.00;101029.91;172648;28;892;-63
2022/08/18 00:25:41;;;;;;;109.45;70.43;;;;;;;18.39;100.00;101026.78;172237;28;777;-63
2022/08/18 00:25:49;;;;;;;109.70;70.23;;;;;;;18.35;100.00;101030.59;172649;28;843;-63
2022/08/18 00:25:56;;;;;;;107.97;69.77;;;;;;;18.38;100.00;101025.09;172654;28;986;-63
2022/08/18 00:26:03;;;;;;;106.67;69.53;;;;;;;18.38;100.00;101030.38;172629;28;978;-62
2022/08/18 00:26:09;;;;;;;105.72;69.40;;;;;;;18.40;100.00;101024.03;172622;28;1002;-63
2022/08/18 00:26:14;;;;;;;103.97;69.40;;;;;;;18.36;100.00;101027.84;172618;28;1045;-63
2022/08/18 00:26:21;;;;;;;103.27;69.40;;;;;;;18.32;100.00;101025.53;172525;28;939;-63
2022/08/18 00:26:27;;;;;;;104.07;69.13;;;;;;;18.28;100.00;101025.75;172674;28;1066;-63
2022/08/18 00:26:32;;;;;;;103.43;69.60;;;;;;;18.24;100.00;101024.28;172603;28;965;-63
2022/08/18 00:26:37;;;;;;;104.37;69.73;;;;;;;18.25;100.00;101026.00;172605;28;856;-63
2022/08/18 00:26:43;;;;;;;106.13;70.15;;;;;;;18.24;100.00;101024.28;172592;28;1085;-63
2022/08/18 00:26:48;;;;;;;105.63;70.47;;;;;;;18.21;100.00;101024.53;172621;28;902;-63
2022/08/18 00:26:53;;;;;;;104.50;70.50;;;;;;;18.19;100.00;101025.56;172675;28;852;-63
2022/08/18 00:26:59;;;;;;;105.03;71.13;;;;;;;18.18;100.00;101023.91;172649;28;902;-63
2022/08/18 00:27:05;;;;;;;106.97;70.97;;;;;;;18.21;100.00;101029.81;172618;28;907;-63
2022/08/18 00:27:11;;;;;;;107.82;71.15;;;;;;;18.24;100.00;101029.56;172525;28;1098;-63
2022/08/18 00:27:20;;;;;;;107.60;71.03;;;;;;;18.24;100.00;101024.28;172628;28;824;-63
2022/08/18 00:27:29;;;;;;;107.97;70.89;;;;;;;18.28;100.00;101024.94;172633;28;1086;-63
2022/08/18 00:27:37;;;;;;;108.37;71.20;;;;;;;18.35;100.00;101025.31;172648;28;880;-63
2022/08/18 00:27:42;;;;;;;107.93;71.20;;;;;;;18.34;100.00;101023.66;172644;28;990;-63
2022/08/18 00:27:48;;;;;;;108.43;71.10;;;;;;;18.34;100.00;101024.47;172683;28;1220;-63
2022/08/18 00:27:53;;;;;;;107.85;70.72;;;;;;;18.36;100.00;101027.00;172717;28;1445;-62
2022/08/18 00:27:59;;;;;;;106.97;70.33;;;;;;;18.38;100.00;101030.38;172648;28;1089;-63
2022/08/18 00:28:04;;;;;;;106.00;70.07;;;;;;;18.40;100.00;101029.31;172707;28;1034;-63
2022/08/18 00:28:12;;;;;;;105.40;69.80;;;;;;;18.41;100.00;101030.16;173240;28;832;-62
2022/08/18 00:28:18;;;;;;;105.90;70.18;;;;;;;18.42;100.00;101025.72;173279;28;1418;-63
2022/08/18 00:28:23;;;;;;;107.72;71.22;;;;;;;18.45;100.00;101026.34;173248;28;883;-63
2022/08/18 00:28:29;;;;;;;108.57;71.80;;;;;;;18.48;100.00;101030.56;173254;28;1209;-63
2022/08/18 00:28:35;;;;;;;107.72;71.45;;;;;;;18.49;100.00;101027.81;172537;28;904;-63
2022/08/18 00:28:40;;;;;;;107.00;70.78;;;;;;;18.49;100.00;101032.25;172649;28;891;-63
2022/08/18 00:28:45;;;;;;;106.87;70.57;;;;;;;18.49;100.00;101030.44;171864;28;884;-63
2022/08/18 00:28:51;;;;;;;107.27;70.47;;;;;;;18.50;100.00;101032.13;171928;28;1033;-63
2022/08/18 00:28:56;;;;;;;104.78;70.15;;;;;;;18.52;100.00;101032.03;171974;28;1464;-63
2022/08/18 00:29:02;;;;;;;105.73;70.40;;;;;;;18.52;100.00;101029.38;171941;28;888;-63
2022/08/18 00:29:08;;;;;;;108.60;71.13;;;;;;;18.53;100.00;101029.25;171961;28;880;-63
2022/08/18 00:29:13;;;;;;;109.65;71.53;;;;;;;18.52;100.00;101030.19;171949;28;982;-63
2022/08/18 00:29:19;;;;;;;109.63;71.67;;;;;;;18.54;100.00;101030.09;171944;28;855;-63
2022/08/18 00:29:24;;;;;;;111.25;71.78;;;;;;;18.54;100.00;101032.72;172011;28;758;-63
2022/08/18 00:29:31;;;;;;;112.40;71.32;;;;;;;18.55;100.00;101030.94;171935;28;1089;-63
2022/08/18 00:29:36;;;;;;;109.70;70.87;;;;;;;18.56;100.00;101032.63;171956;28;1140;-63